createdAt,value
2019-01-19T00:01:55.001Z,30.67
2019-01-19T00:04:54.463Z,33.73
2019-01-19T00:07:56.745Z,26.80
2019-01-19T00:10:53.729Z,28.40
2019-01-19T00:13:56.306Z,33.43
2019-01-19T00:17:05.555Z,28.40
2019-01-19T00:20:30.141Z,29.67
2019-01-19T00:23:39.296Z,31.47
2019-01-19T00:26:21.073Z,29.37
2019-01-19T00:29:02.402Z,28.67
2019-01-19T00:31:36.113Z,29.87
2019-01-19T00:34:34.207Z,29.53
2019-01-19T00:37:08.831Z,29.87
2019-01-19T00:40:16.413Z,29.67
2019-01-19T00:43:29.169Z,24.10
2019-01-19T00:47:02.984Z,28.17
2019-01-19T00:50:01.637Z,32.10
2019-01-19T00:53:01.185Z,27.10
2019-01-19T00:56:17.542Z,24.13
2019-01-19T00:59:15.137Z,28.63
2019-01-19T01:02:09.080Z,27.37
2019-01-19T01:04:58.628Z,31.70
2019-01-19T01:08:11.123Z,29.07
2019-01-19T01:10:46.708Z,31.93
2019-01-19T01:13:42.629Z,27.00
2019-01-19T01:17:05.525Z,32.47
2019-01-19T01:19:57.614Z,27.47
2019-01-19T01:22:59.366Z,29.93
2019-01-19T01:25:34.009Z,26.33
2019-01-19T01:28:41.802Z,28.67
2019-01-19T01:31:28.940Z,30.40
2019-01-19T01:34:40.472Z,25.53
2019-01-19T01:37:28.802Z,27.07
2019-01-19T01:40:25.222Z,26.87
2019-01-19T01:43:26.636Z,30.20
2019-01-19T01:46:19.872Z,26.60
2019-01-19T01:49:29.726Z,29.13
2019-01-19T01:52:29.465Z,28.20
2019-01-19T01:55:20.779Z,27.53
2019-01-19T01:58:12.241Z,29.43
2019-01-19T02:01:16.741Z,26.97
2019-01-19T02:04:32.102Z,30.50
2019-01-19T02:07:21.434Z,27.60
2019-01-19T02:10:20.611Z,28.47
2019-01-19T02:13:21.600Z,25.73
2019-01-19T02:16:22.604Z,28.53
2019-01-19T02:19:15.264Z,28.63
2019-01-19T02:22:44.220Z,27.03
2019-01-19T02:25:50.493Z,26.33
2019-01-19T02:28:49.707Z,23.03
2019-01-19T02:32:07.734Z,30.43
2019-01-19T02:35:15.145Z,28.87
2019-01-19T02:38:33.246Z,24.43
2019-01-19T02:41:39.301Z,26.40
2019-01-19T02:44:37.776Z,24.93
2019-01-19T02:47:37.841Z,27.90
2019-01-19T02:50:30.413Z,26.10
2019-01-19T02:53:31.672Z,24.53
2019-01-19T02:56:30.869Z,27.17
2019-01-19T02:59:15.617Z,29.03
2019-01-19T03:02:09.600Z,30.60
2019-01-19T03:05:13.815Z,29.40
2019-01-19T03:07:56.184Z,25.67
2019-01-19T03:11:05.265Z,25.13
2019-01-19T03:14:10.343Z,27.53
2019-01-19T03:17:04.446Z,29.27
2019-01-19T03:20:11.073Z,31.17
2019-01-19T03:23:01.110Z,29.17
2019-01-19T03:26:07.393Z,30.77
2019-01-19T03:29:04.141Z,26.50
2019-01-19T03:32:11.686Z,32.63
2019-01-19T03:35:19.637Z,29.93
2019-01-19T03:38:18.717Z,29.80
2019-01-19T03:41:07.601Z,27.53
2019-01-19T03:44:11.752Z,28.83
2019-01-19T03:47:20.326Z,31.53
2019-01-19T03:50:25.481Z,29.77
2019-01-19T03:53:11.801Z,28.03
2019-01-19T03:56:39.137Z,27.17
2019-01-19T03:59:57.786Z,29.60
2019-01-19T04:03:07.794Z,28.83
2019-01-19T04:06:03.485Z,30.37
2019-01-19T04:09:17.718Z,34.00
2019-01-19T04:12:39.180Z,32.43
2019-01-19T04:16:06.337Z,28.90
2019-01-19T04:18:42.902Z,28.00
2019-01-19T04:21:42.819Z,28.27
2019-01-19T04:24:14.622Z,25.20
2019-01-19T04:26:44.360Z,27.17
2019-01-19T04:29:13.764Z,26.70
2019-01-19T04:31:41.029Z,28.53
2019-01-19T04:34:08.566Z,26.30
2019-01-19T04:36:36.320Z,30.73
2019-01-19T04:39:08.133Z,26.93
2019-01-19T04:41:35.397Z,29.53
2019-01-19T04:44:04.213Z,29.23
2019-01-19T04:46:31.961Z,28.13
2019-01-19T04:48:59.343Z,28.27
2019-01-19T04:51:27.026Z,31.33
2019-01-19T04:53:54.580Z,27.67
2019-01-19T04:56:21.829Z,25.53
2019-01-19T04:58:49.066Z,25.30
2019-01-19T05:01:16.331Z,28.17
2019-01-19T05:03:43.691Z,26.87
2019-01-19T05:06:12.388Z,27.77
2019-01-19T05:08:40.085Z,31.83
2019-01-19T05:11:07.720Z,30.27
2019-01-19T05:13:35.050Z,26.80
2019-01-19T05:16:02.342Z,26.90
2019-01-19T05:18:29.572Z,29.07
2019-01-19T05:20:57.325Z,32.57
2019-01-19T05:23:24.854Z,27.37
2019-01-19T05:25:52.113Z,26.70
2019-01-19T05:28:19.621Z,25.87
2019-01-19T05:30:47.356Z,24.20
2019-01-19T05:33:14.727Z,26.83
2019-01-19T05:35:42.573Z,23.37
2019-01-19T05:38:09.833Z,25.23
2019-01-19T05:40:37.098Z,24.67
2019-01-19T05:43:04.568Z,26.10
2019-01-19T05:45:31.886Z,26.53
2019-01-19T05:47:59.553Z,25.47
2019-01-19T05:50:26.787Z,26.40
2019-01-19T05:52:54.154Z,26.73
2019-01-19T05:55:21.736Z,24.97
2019-01-19T05:57:48.981Z,25.23
2019-01-19T06:00:29.670Z,25.23
2019-01-19T06:02:57.036Z,24.33
2019-01-19T06:05:24.209Z,24.40
2019-01-19T06:07:51.740Z,22.73
2019-01-19T06:10:19.283Z,25.77
2019-01-19T06:12:46.649Z,23.13
2019-01-19T06:15:14.016Z,22.33
2019-01-19T06:17:41.724Z,23.87
2019-01-19T06:20:12.172Z,23.87
2019-01-19T06:22:39.709Z,25.87
2019-01-19T06:25:07.846Z,21.53
2019-01-19T06:27:35.128Z,22.17
2019-01-19T06:30:05.938Z,25.40
2019-01-19T06:32:33.197Z,21.90
2019-01-19T06:35:00.446Z,27.23
2019-01-19T06:37:28.034Z,23.57
2019-01-19T06:39:55.276Z,25.57
2019-01-19T06:42:22.530Z,21.37
2019-01-19T06:44:49.997Z,24.07
2019-01-19T06:47:17.289Z,23.27
2019-01-19T06:49:44.522Z,22.60
2019-01-19T06:52:11.795Z,24.37
2019-01-19T06:54:39.028Z,29.27
2019-01-19T06:57:07.172Z,25.33
2019-01-19T06:59:34.417Z,23.93
2019-01-19T07:02:01.686Z,22.73
2019-01-19T07:04:28.944Z,22.43
2019-01-19T07:07:02.511Z,23.13
2019-01-19T07:09:25.682Z,27.30
2019-01-19T07:11:52.972Z,23.23
2019-01-19T07:14:20.106Z,25.00
2019-01-19T07:16:47.381Z,27.00
2019-01-19T07:19:14.917Z,22.90
2019-01-19T07:21:42.083Z,19.30
2019-01-19T07:24:09.325Z,20.63
2019-01-19T07:26:36.584Z,25.07
2019-01-19T07:29:03.818Z,21.27
2019-01-19T07:31:31.085Z,23.87
2019-01-19T07:33:59.040Z,21.83
2019-01-19T07:36:26.685Z,22.87
2019-01-19T07:38:53.921Z,22.30
2019-01-19T07:41:21.797Z,20.87
2019-01-19T07:43:49.067Z,22.43
2019-01-19T07:46:17.034Z,23.63
2019-01-19T07:48:44.293Z,23.87
2019-01-19T07:51:11.616Z,31.03
2019-01-19T07:53:39.186Z,24.67
2019-01-19T07:56:07.053Z,31.47
2019-01-19T07:58:34.713Z,25.90
2019-01-19T08:01:01.960Z,35.27
2019-01-19T08:03:29.521Z,32.90
2019-01-19T08:05:59.488Z,25.27
2019-01-19T08:08:27.129Z,21.00
2019-01-19T08:10:54.641Z,28.17
2019-01-19T08:13:21.899Z,23.27
2019-01-19T08:15:49.472Z,20.77
2019-01-19T08:18:17.542Z,21.53
2019-01-19T08:20:45.307Z,21.83
2019-01-19T08:23:12.562Z,24.70
2019-01-19T08:25:40.121Z,21.80
2019-01-19T08:28:07.413Z,17.67
2019-01-19T08:30:34.729Z,21.87
2019-01-19T08:33:02.483Z,20.93
2019-01-19T08:35:29.728Z,27.97
2019-01-19T08:37:56.984Z,17.23
2019-01-19T08:40:29.527Z,17.93
2019-01-19T08:43:22.717Z,14.40
2019-01-19T08:45:50.286Z,18.20
2019-01-19T08:48:18.145Z,16.47
2019-01-19T08:50:45.477Z,16.97
2019-01-19T08:53:12.797Z,17.90
2019-01-19T08:55:40.442Z,22.67
2019-01-19T08:58:07.725Z,18.07
2019-01-19T09:00:34.957Z,20.30
2019-01-19T09:03:02.581Z,19.47
2019-01-19T09:05:29.817Z,17.93
2019-01-19T09:07:57.134Z,20.23
2019-01-19T09:10:24.745Z,19.70
2019-01-19T09:12:52.011Z,16.30
2019-01-19T09:15:19.280Z,18.30
2019-01-19T09:17:46.534Z,16.70
2019-01-19T09:20:14.253Z,13.67
2019-01-19T09:22:41.505Z,18.40
2019-01-19T09:25:10.579Z,14.37
2019-01-19T09:27:38.169Z,13.97
2019-01-19T09:30:09.192Z,15.90
2019-01-19T09:32:36.629Z,16.17
2019-01-19T09:35:04.244Z,13.60
2019-01-19T09:37:31.784Z,16.57
2019-01-19T09:39:59.052Z,14.87
2019-01-19T09:42:26.612Z,13.23
2019-01-19T09:44:53.884Z,14.43
2019-01-19T09:47:21.150Z,11.23
2019-01-19T09:49:48.414Z,13.13
2019-01-19T09:52:21.137Z,11.70
2019-01-19T09:54:45.253Z,11.80
2019-01-19T09:57:12.512Z,14.17
2019-01-19T09:59:40.128Z,8.47
2019-01-19T10:02:07.787Z,9.90
2019-01-19T10:04:35.413Z,9.40
2019-01-19T10:07:02.663Z,11.47
2019-01-19T10:09:29.929Z,9.80
2019-01-19T10:11:57.168Z,10.70
2019-01-19T10:14:25.184Z,10.87
2019-01-19T10:16:52.829Z,13.13
2019-01-19T10:19:20.393Z,8.93
2019-01-19T10:21:47.818Z,7.27
2019-01-19T10:24:15.402Z,7.90
2019-01-19T10:26:42.965Z,7.50
2019-01-19T10:29:10.626Z,8.67
2019-01-19T10:31:37.950Z,8.40
2019-01-19T10:34:05.945Z,9.77
2019-01-19T10:36:33.510Z,8.87
2019-01-19T10:39:01.269Z,9.03
2019-01-19T10:41:28.829Z,7.50
2019-01-19T10:43:56.410Z,10.23
2019-01-19T10:46:24.157Z,7.40
2019-01-19T10:48:51.714Z,8.93
2019-01-19T10:51:18.940Z,8.13
2019-01-19T10:53:46.177Z,7.27
2019-01-19T10:56:13.773Z,9.37
2019-01-19T10:58:41.018Z,7.67
2019-01-19T11:01:08.383Z,10.07
2019-01-19T11:03:35.659Z,8.87
2019-01-19T11:06:02.909Z,11.67
2019-01-19T11:08:30.150Z,9.30
2019-01-19T11:10:57.725Z,8.93
2019-01-19T11:13:25.059Z,10.83
2019-01-19T11:15:52.453Z,8.40
2019-01-19T11:18:19.693Z,9.53
2019-01-19T11:20:47.067Z,6.90
2019-01-19T11:23:14.680Z,8.57
2019-01-19T11:25:41.961Z,9.37
2019-01-19T11:28:09.482Z,8.47
2019-01-19T11:30:36.751Z,8.77
2019-01-19T11:33:03.998Z,9.03
2019-01-19T11:35:31.748Z,7.57
2019-01-19T11:37:59.309Z,8.60
2019-01-19T11:40:32.073Z,8.43
2019-01-19T11:42:59.333Z,9.40
2019-01-19T11:45:26.898Z,8.23
2019-01-19T11:47:54.134Z,9.27
2019-01-19T11:50:22.705Z,8.20
2019-01-19T11:52:50.393Z,8.30
2019-01-19T11:55:18.469Z,9.90
2019-01-19T11:57:46.705Z,8.87
2019-01-19T12:00:16.349Z,13.13
2019-01-19T12:02:43.584Z,9.80
2019-01-19T12:05:11.125Z,10.90
2019-01-19T12:07:38.357Z,11.20
2019-01-19T12:10:08.517Z,9.57
2019-01-19T12:12:36.093Z,10.17
2019-01-19T12:15:05.045Z,8.83
2019-01-19T12:17:32.640Z,8.00
2019-01-19T12:19:59.920Z,10.70
2019-01-19T12:22:27.162Z,10.00
2019-01-19T12:24:54.392Z,7.63
2019-01-19T12:27:21.690Z,11.37
2019-01-19T12:29:48.922Z,8.07
2019-01-19T12:32:16.201Z,10.10
2019-01-19T12:34:43.436Z,11.53
2019-01-19T12:37:10.629Z,8.97
2019-01-19T12:39:37.869Z,10.23
2019-01-19T12:42:05.977Z,11.90
2019-01-19T12:44:33.208Z,8.63
2019-01-19T12:47:00.481Z,7.23
2019-01-19T12:49:27.718Z,7.33
2019-01-19T12:51:55.001Z,8.90
2019-01-19T12:54:22.237Z,9.43
2019-01-19T12:56:49.598Z,7.93
2019-01-19T12:59:16.937Z,8.77
2019-01-19T13:01:44.261Z,8.00
2019-01-19T13:04:11.505Z,6.63
2019-01-19T13:06:43.614Z,7.33
2019-01-19T13:09:23.669Z,9.23
2019-01-19T13:12:11.511Z,7.30
2019-01-19T13:14:45.470Z,9.93
2019-01-19T13:17:46.968Z,11.10
2019-01-19T13:20:42.589Z,10.97
2019-01-19T13:23:45.512Z,8.80
2019-01-19T13:26:51.048Z,8.20
2019-01-19T13:29:51.805Z,14.07
2019-01-19T13:32:41.119Z,10.17
2019-01-19T13:35:50.525Z,12.67
2019-01-19T13:39:07.729Z,9.83
2019-01-19T13:42:04.933Z,7.60
2019-01-19T13:45:14.544Z,6.43
2019-01-19T13:48:19.640Z,10.50
2019-01-19T13:51:12.464Z,7.33
2019-01-19T13:54:05.733Z,8.23
2019-01-19T13:57:33.333Z,8.33
2019-01-19T14:00:26.553Z,6.60
2019-01-19T14:03:33.052Z,6.50
2019-01-19T14:06:17.088Z,6.00
2019-01-19T14:09:22.137Z,6.47
2019-01-19T14:12:14.121Z,8.57
2019-01-19T14:15:35.413Z,8.87
2019-01-19T14:18:58.238Z,9.23
2019-01-19T14:21:52.924Z,8.77
2019-01-19T14:24:32.423Z,12.43
2019-01-19T14:27:32.888Z,10.70
2019-01-19T14:30:36.853Z,12.23
2019-01-19T14:33:30.397Z,10.40
2019-01-19T14:36:21.175Z,11.37
2019-01-19T14:39:13.883Z,11.07
2019-01-19T14:42:23.053Z,11.17
2019-01-19T14:45:23.265Z,10.50
2019-01-19T14:48:23.944Z,10.93
2019-01-19T14:51:25.570Z,12.33
2019-01-19T14:54:32.935Z,10.17
2019-01-19T14:57:39.245Z,11.77
2019-01-19T15:00:42.288Z,15.43
2019-01-19T15:03:26.329Z,14.13
2019-01-19T15:06:47.770Z,13.83
2019-01-19T15:09:40.163Z,12.43
2019-01-19T15:12:56.632Z,13.63
2019-01-19T15:15:56.961Z,14.23
2019-01-19T15:19:01.042Z,12.73
2019-01-19T15:22:00.897Z,13.50
2019-01-19T15:24:59.782Z,17.60
2019-01-19T15:28:24.017Z,15.30
2019-01-19T15:31:06.176Z,16.27
2019-01-19T15:34:07.385Z,16.63
2019-01-19T15:37:30.693Z,15.70
2019-01-19T15:40:42.878Z,18.63
2019-01-19T15:44:00.865Z,16.20
2019-01-19T15:47:07.717Z,15.70
2019-01-19T15:50:13.294Z,17.17
2019-01-19T15:53:04.797Z,14.73
2019-01-19T15:56:23.443Z,18.37
2019-01-19T16:00:02.914Z,18.67
2019-01-19T16:02:58.624Z,20.13
2019-01-19T16:06:19.185Z,19.90
2019-01-19T16:09:18.151Z,21.77
2019-01-19T16:12:10.677Z,20.07
2019-01-19T16:15:12.181Z,20.23
2019-01-19T16:17:53.080Z,20.13
2019-01-19T16:21:01.594Z,23.93
2019-01-19T16:23:58.524Z,20.90
2019-01-19T16:27:08.291Z,25.17
2019-01-19T16:30:12.769Z,24.90
2019-01-19T16:32:53.184Z,28.53
2019-01-19T16:36:08.172Z,25.47
2019-01-19T16:39:15.160Z,29.03
2019-01-19T16:42:16.600Z,25.73
2019-01-19T16:45:25.928Z,29.93
2019-01-19T16:48:53.069Z,28.47
2019-01-19T16:51:55.105Z,28.47
2019-01-19T16:55:08.929Z,30.70
2019-01-19T16:58:18.334Z,28.00
2019-01-19T17:01:26.233Z,29.03
2019-01-19T17:04:48.454Z,24.57
2019-01-19T17:08:02.728Z,27.93
2019-01-19T17:10:52.505Z,27.63
2019-01-19T17:13:36.249Z,26.37
2019-01-19T17:16:31.445Z,27.60
2019-01-19T17:19:53.286Z,30.53
2019-01-19T17:22:49.361Z,34.53
2019-01-19T17:26:04.813Z,32.37
2019-01-19T17:29:13.910Z,35.03
2019-01-19T17:31:57.932Z,35.07
2019-01-19T17:35:01.079Z,33.20
2019-01-19T17:37:39.333Z,35.27
2019-01-19T17:41:00.593Z,31.63
2019-01-19T17:43:39.920Z,32.33
2019-01-19T17:46:20.793Z,40.13
2019-01-19T17:49:20.108Z,37.37
2019-01-19T17:52:24.997Z,37.10
2019-01-19T17:55:18.615Z,31.40
2019-01-19T17:58:22.565Z,30.27
2019-01-19T18:01:25.094Z,32.30
2019-01-19T18:04:31.668Z,31.03
2019-01-19T18:07:52.886Z,36.57
2019-01-19T18:11:08.104Z,35.27
2019-01-19T18:14:16.172Z,34.10
2019-01-19T18:17:40.601Z,32.20
2019-01-19T18:20:59.023Z,33.00
2019-01-19T18:24:02.510Z,29.03
2019-01-19T18:26:51.292Z,30.97
2019-01-19T18:29:47.923Z,27.47
2019-01-19T18:33:00.988Z,29.53
2019-01-19T18:35:55.181Z,28.90
2019-01-19T18:38:53.518Z,30.80
2019-01-19T18:42:03.302Z,30.33
2019-01-19T18:45:20.992Z,30.77
2019-01-19T18:48:00.573Z,30.80
2019-01-19T18:51:11.641Z,30.03
2019-01-19T18:54:22.043Z,31.90
2019-01-19T18:57:32.588Z,35.53
2019-01-19T19:00:30.097Z,52.23
2019-01-19T19:03:37.873Z,45.50
2019-01-19T19:06:44.586Z,33.23
2019-01-19T19:10:11.827Z,31.27
2019-01-19T19:12:58.301Z,29.53
2019-01-19T19:16:03.553Z,29.90
2019-01-19T19:18:51.120Z,32.90
2019-01-19T19:21:54.418Z,31.07
2019-01-19T19:24:44.625Z,29.20
2019-01-19T19:27:52.719Z,28.33
2019-01-19T19:30:36.597Z,34.27
2019-01-19T19:33:32.783Z,27.83
2019-01-19T19:36:32.377Z,30.73
2019-01-19T19:39:12.092Z,32.97
2019-01-19T19:42:39.793Z,35.53
2019-01-19T19:46:01.065Z,32.57
2019-01-19T19:49:06.173Z,35.43
2019-01-19T19:51:59.821Z,32.87
2019-01-19T19:54:28.424Z,33.63
2019-01-19T19:56:56.533Z,38.40
2019-01-19T20:02:21.448Z,37.50
2019-01-19T20:04:48.667Z,43.90
2019-01-19T20:07:16.221Z,40.97
2019-01-19T20:09:43.448Z,40.33
2019-01-19T20:12:10.728Z,42.73
2019-01-19T20:14:38.392Z,38.37
2019-01-19T20:17:06.115Z,42.07
2019-01-19T20:19:33.396Z,49.30
2019-01-19T20:22:00.665Z,44.70
2019-01-19T20:24:28.211Z,49.70
2019-01-19T20:26:55.799Z,47.93
2019-01-19T20:29:23.036Z,47.43
2019-01-19T20:31:50.457Z,49.17
2019-01-19T20:34:17.741Z,46.10
2019-01-19T20:36:45.020Z,47.63
2019-01-19T20:39:12.552Z,51.53
2019-01-19T20:41:39.827Z,51.20
2019-01-19T20:44:07.052Z,53.57
2019-01-19T20:46:34.287Z,53.43
2019-01-19T20:49:01.579Z,54.30
2019-01-19T20:51:29.110Z,57.13
2019-01-19T20:53:56.572Z,52.73
2019-01-19T20:56:23.805Z,51.07
2019-01-19T20:58:51.103Z,49.70
2019-01-19T21:01:18.637Z,44.47
2019-01-19T21:03:46.025Z,44.73
2019-01-19T21:06:13.253Z,40.37
2019-01-19T21:08:40.873Z,43.73
2019-01-19T21:11:08.346Z,48.30
2019-01-19T21:13:35.615Z,47.33
2019-01-19T21:16:02.840Z,48.87
2019-01-19T21:18:30.191Z,52.93
2019-01-19T21:20:57.536Z,49.37
2019-01-19T21:23:27.882Z,48.33
2019-01-19T21:25:55.120Z,56.87
2019-01-19T21:28:22.683Z,52.57
2019-01-19T21:30:49.905Z,58.83
2019-01-19T21:33:17.177Z,53.30
2019-01-19T21:35:44.395Z,55.00
2019-01-19T21:38:12.051Z,52.70
2019-01-19T21:40:39.373Z,55.13
2019-01-19T21:43:06.747Z,48.53
2019-01-19T21:45:33.964Z,64.47
2019-01-19T21:48:01.257Z,98.87
2019-01-19T21:50:28.805Z,121.93
2019-01-19T21:52:56.073Z,106.87
2019-01-19T21:55:23.309Z,100.73
2019-01-19T21:57:50.583Z,95.73
2019-01-19T22:00:17.824Z,92.23
2019-01-19T22:02:45.100Z,80.73
2019-01-19T22:05:12.431Z,77.87
2019-01-19T22:07:39.699Z,63.40
2019-01-19T22:10:09.806Z,66.97
2019-01-19T22:12:37.167Z,66.53
2019-01-19T22:15:07.151Z,64.30
2019-01-19T22:17:39.521Z,74.93
2019-01-19T22:20:05.196Z,72.20
2019-01-19T22:22:32.467Z,66.73
2019-01-19T22:24:59.771Z,59.83
2019-01-19T22:27:27.296Z,63.80
2019-01-19T22:29:54.951Z,62.90
2019-01-19T22:32:22.489Z,52.17
2019-01-19T22:34:49.768Z,57.93
2019-01-19T22:37:17.299Z,49.87
2019-01-19T22:39:44.648Z,58.40
2019-01-19T22:42:11.977Z,59.57
2019-01-19T22:44:39.233Z,64.77
2019-01-19T22:47:06.821Z,57.80
2019-01-19T22:49:35.888Z,56.03
2019-01-19T22:52:03.141Z,56.40
2019-01-19T22:54:30.395Z,50.00
2019-01-19T22:56:57.997Z,53.23
2019-01-19T22:59:25.258Z,56.80
2019-01-19T23:01:55.925Z,53.70
2019-01-19T23:04:23.181Z,51.87
2019-01-19T23:06:50.396Z,52.03
2019-01-19T23:09:17.732Z,54.40
2019-01-19T23:11:45.894Z,53.30
2019-01-19T23:14:13.235Z,57.03
2019-01-19T23:16:40.495Z,56.97
2019-01-19T23:19:07.868Z,56.73
2019-01-19T23:21:35.096Z,53.33
2019-01-19T23:24:02.345Z,54.30
2019-01-19T23:26:29.983Z,58.23
2019-01-19T23:28:57.231Z,60.27
2019-01-19T23:31:24.459Z,61.30
2019-01-19T23:33:52.013Z,59.10
2019-01-19T23:36:19.255Z,67.23
2019-01-19T23:38:46.516Z,55.83
2019-01-19T23:41:33.327Z,62.27
2019-01-19T23:44:00.847Z,60.53
2019-01-19T23:46:28.508Z,60.43
2019-01-19T23:48:55.889Z,60.67
2019-01-19T23:51:23.157Z,63.07
2019-01-19T23:53:50.412Z,63.87
2019-01-19T23:56:17.623Z,63.27
2019-01-19T23:58:44.879Z,59.33
